Time;durP1;ratioP1;P1;durP2;ratioP2;P2;SDS_P1;SDS_P2;PMS_P1;PMS_P2;Temp;Humidity;BMP_temperature;BMP_pressure;BME280_temperature;BME280_humidity;BME280_pressure;Samples;Min_cycle;Max_cycle;Signal;HPM_P1;HPM_P2
2023/03/01 00:01:26;;;;;;;;;19.80;19.80;;;;;;;;5053428;29;8846;-76
2023/03/01 00:03:58;;;;;;;;;1.40;1.40;;;;;;;;5069509;29;8799;-76
2023/03/01 00:06:29;;;;;;;;;3.20;3.20;;;;;;;;5069710;29;8808;-76
2023/03/01 00:09:00;;;;;;;;;0.00;0.00;;;;;;;;5054140;29;9551;-77
2023/03/01 00:11:32;;;;;;;;;2.20;2.20;;;;;;;;5069388;29;8823;-77
2023/03/01 00:14:07;;;;;;;;;25.60;25.60;;;;;;;;5053877;29;8887;-77
2023/03/01 00:16:42;;;;;;;;;53.20;48.60;;;;;;;;5053569;29;8811;-77
2023/03/01 00:19:14;;;;;;;;;8.20;8.20;;;;;;;;5053599;29;8808;-77
2023/03/01 00:21:45;;;;;;;;;7.00;7.00;;;;;;;;5053073;29;8810;-77
2023/03/01 00:24:17;;;;;;;;;7.20;7.20;;;;;;;;5069259;29;8817;-77
2023/03/01 00:26:48;;;;;;;;;6.40;6.20;;;;;;;;5053695;29;8816;-77
2023/03/01 00:29:37;;;;;;;;;24.60;24.60;;;;;;;;5071751;29;8814;-75
2023/03/01 00:32:08;;;;;;;;;6.20;5.80;;;;;;;;5069491;29;8806;-75
2023/03/01 00:34:39;;;;;;;;;4.00;4.00;;;;;;;;5053492;29;8841;-75
2023/03/01 00:37:10;;;;;;;;;15.20;15.20;;;;;;;;5068294;29;8854;-75
2023/03/01 00:40:00;;;;;;;;;5.20;5.20;;;;;;;;5071018;29;8830;-75
2023/03/01 00:42:31;;;;;;;;;28.00;27.20;;;;;;;;5053256;29;8791;-78
2023/03/01 00:45:02;;;;;;;;;13.40;13.40;;;;;;;;5085657;29;8910;-75
2023/03/01 00:47:34;;;;;;;;;5.20;5.20;;;;;;;;5053703;29;9468;-76
2023/03/01 00:50:05;;;;;;;;;48.80;46.60;;;;;;;;5085790;29;8805;-80
2023/03/01 00:52:36;;;;;;;;;11.60;10.40;;;;;;;;5038079;29;8807;-80
2023/03/01 00:55:08;;;;;;;;;14.80;13.60;;;;;;;;5037728;29;8856;-80
2023/03/01 00:57:39;;;;;;;;;0.00;0.00;;;;;;;;5068161;29;8810;-80
2023/03/01 01:00:11;;;;;;;;;1.00;1.00;;;;;;;;5064413;29;8830;-77
2023/03/01 01:03:00;;;;;;;;;0.00;0.00;;;;;;;;5065185;29;11072;-78
2023/03/01 01:05:34;;;;;;;;;0.00;0.00;;;;;;;;5034100;29;8812;-75
2023/03/01 01:08:06;;;;;;;;;1.80;1.80;;;;;;;;5049036;29;8858;-75
2023/03/01 01:10:38;;;;;;;;;0.60;0.60;;;;;;;;5049148;29;8798;-75
2023/03/01 01:13:27;;;;;;;;;3.00;3.00;;;;;;;;5075252;29;8816;-75
2023/03/01 01:16:01;;;;;;;;;1.00;1.00;;;;;;;;5068594;29;8804;-75
2023/03/01 01:18:33;;;;;;;;;0.40;0.40;;;;;;;;5044538;29;8814;-75
2023/03/01 01:21:05;;;;;;;;;3.60;3.60;;;;;;;;5067257;29;8820;-74
2023/03/01 01:23:38;;;;;;;;;3.40;3.40;;;;;;;;5053051;29;8800;-74
2023/03/01 01:26:29;;;;;;;;;8.60;8.60;;;;;;;;5070887;29;8800;-74
2023/03/01 01:29:01;;;;;;;;;16.20;15.80;;;;;;;;5052564;29;8878;-75
2023/03/01 01:31:33;;;;;;;;;4.00;4.00;;;;;;;;5067870;29;8860;-75
2023/03/01 01:34:05;;;;;;;;;4.60;4.20;;;;;;;;5067978;29;8796;-75
2023/03/01 01:36:36;;;;;;;;;5.80;5.80;;;;;;;;5067600;29;8845;-76
2023/03/01 01:39:12;;;;;;;;;0.80;0.80;;;;;;;;5084702;29;9720;-76
2023/03/01 01:41:43;;;;;;;;;6.00;6.00;;;;;;;;5036912;29;8802;-76
2023/03/01 01:44:14;;;;;;;;;0.60;0.60;;;;;;;;5067758;29;9616;-76
2023/03/01 01:46:52;;;;;;;;;1.00;1.00;;;;;;;;5067905;29;8778;-77
2023/03/01 01:49:27;;;;;;;;;7.00;7.00;;;;;;;;5067729;29;8786;-74
2023/03/01 01:52:27;;;;;;;;;32.80;32.60;;;;;;;;5083370;29;9565;-76
2023/03/01 01:55:11;;;;;;;;;66.00;56.40;;;;;;;;5051915;29;8893;-75
2023/03/01 01:57:48;;;;;;;;;34.00;31.80;;;;;;;;5067947;29;8791;-80
2023/03/01 02:00:21;;;;;;;;;27.60;27.60;;;;;;;;5036708;29;8902;-81
2023/03/01 02:03:08;;;;;;;;;30.20;26.20;;;;;;;;5052067;29;8809;-80
2023/03/01 02:05:50;;;;;;;;;10.00;10.00;;;;;;;;5068103;29;8801;-77
2023/03/01 02:08:24;;;;;;;;;6.00;6.00;;;;;;;;5052250;29;8806;-77
2023/03/01 02:10:57;;;;;;;;;11.80;11.80;;;;;;;;5032883;29;8795;-76
2023/03/01 02:13:47;;;;;;;;;11.00;11.00;;;;;;;;5048569;29;8814;-76
2023/03/01 02:16:20;;;;;;;;;18.40;18.40;;;;;;;;5063685;29;8778;-76
2023/03/01 02:18:51;;;;;;;;;19.80;19.80;;;;;;;;5082519;29;8822;-76
2023/03/01 02:21:43;;;;;;;;;22.00;19.40;;;;;;;;5055234;29;8930;-79
2023/03/01 02:24:31;;;;;;;;;21.40;21.40;;;;;;;;5086959;29;8792;-79
2023/03/01 02:27:02;;;;;;;;;11.60;11.60;;;;;;;;5071679;29;8783;-79
2023/03/01 02:29:33;;;;;;;;;24.60;24.40;;;;;;;;5071062;29;8812;-75
2023/03/01 02:32:05;;;;;;;;;24.00;24.00;;;;;;;;5085211;29;8854;-74
2023/03/01 02:34:36;;;;;;;;;13.40;13.00;;;;;;;;5070160;29;9623;-74
2023/03/01 02:37:14;;;;;;;;;13.00;13.00;;;;;;;;5083831;29;8887;-75
2023/03/01 02:39:51;;;;;;;;;14.60;14.60;;;;;;;;5049627;29;8835;-74
2023/03/01 02:42:23;;;;;;;;;21.60;20.20;;;;;;;;5055578;29;8846;-81
2023/03/01 02:44:54;;;;;;;;;5.00;5.00;;;;;;;;5087344;29;8851;-80
2023/03/01 02:47:26;;;;;;;;;15.80;15.80;;;;;;;;5086401;29;8795;-84
2023/03/01 02:49:57;;;;;;;;;55.20;49.40;;;;;;;;5084407;29;8877;-78
2023/03/01 02:52:28;;;;;;;;;70.50;58.00;;;;;;;;5087700;29;8792;-78
2023/03/01 02:55:10;;;;;;;;;81.00;67.00;;;;;;;;5054861;29;8820;-77
2023/03/01 02:57:44;;;;;;;;;6.80;6.80;;;;;;;;5040563;29;9544;-75
2023/03/01 03:00:20;;;;;;;;;0.00;0.00;;;;;;;;5088495;29;8972;-79
2023/03/01 03:02:53;;;;;;;;;0.40;0.40;;;;;;;;5071091;29;8795;-81
2023/03/01 03:05:29;;;;;;;;;0.00;0.00;;;;;;;;5040577;29;8807;-81
2023/03/01 03:08:03;;;;;;;;;0.00;0.00;;;;;;;;5056124;29;9544;-83
2023/03/01 03:10:40;;;;;;;;;0.60;0.60;;;;;;;;5038927;29;8883;-86
2023/03/01 03:13:13;;;;;;;;;3.00;3.00;;;;;;;;5034628;29;8830;-78
2023/03/01 03:15:44;;;;;;;;;1.00;1.00;;;;;;;;5078356;29;8816;-79
2023/03/01 03:18:16;;;;;;;;;2.60;2.60;;;;;;;;5065294;29;8854;-77
2023/03/01 03:21:11;;;;;;;;;7.40;7.40;;;;;;;;5073388;29;8819;-77
2023/03/01 03:23:42;;;;;;;;;9.80;9.40;;;;;;;;5039594;29;8822;-75
2023/03/01 03:26:14;;;;;;;;;5.20;4.00;;;;;;;;5086970;29;9476;-75
2023/03/01 03:28:46;;;;;;;;;5.20;5.20;;;;;;;;5070801;29;9540;-75
2023/03/01 03:31:17;;;;;;;;;3.00;3.00;;;;;;;;5085490;29;9618;-75
2023/03/01 03:34:06;;;;;;;;;3.20;3.00;;;;;;;;5084781;29;8832;-77
2023/03/01 03:36:37;;;;;;;;;6.80;6.80;;;;;;;;5054261;29;8834;-76
2023/03/01 03:39:08;;;;;;;;;6.00;6.00;;;;;;;;5070096;29;8851;-76
2023/03/01 03:41:40;;;;;;;;;1.20;1.20;;;;;;;;5054852;29;11450;-77
2023/03/01 03:44:29;;;;;;;;;0.00;0.00;;;;;;;;5056820;29;8776;-77
2023/03/01 03:47:00;;;;;;;;;0.00;0.00;;;;;;;;5070816;29;8806;-77
2023/03/01 03:49:30;;;;;;;;;1.00;1.00;;;;;;;;5086522;29;9571;-79
2023/03/01 03:52:01;;;;;;;;;1.50;1.00;;;;;;;;5069929;29;11455;-75
2023/03/01 03:54:51;;;;;;;;;1.00;0.40;;;;;;;;5086820;29;9783;-75
2023/03/01 03:57:22;;;;;;;;;3.00;3.00;;;;;;;;5069784;29;8954;-76
2023/03/01 03:59:53;;;;;;;;;8.60;7.80;;;;;;;;5069669;29;8950;-77
2023/03/01 04:02:44;;;;;;;;;9.80;9.80;;;;;;;;5088168;29;9558;-83
2023/03/01 04:05:17;;;;;;;;;3.00;3.00;;;;;;;;5094051;29;8780;-84
2023/03/01 04:08:01;;;;;;;;;7.80;7.80;;;;;;;;5075558;29;8777;-82
2023/03/01 04:10:36;;;;;;;;;3.00;3.00;;;;;;;;5060172;29;8922;-82
2023/03/01 04:13:11;;;;;;;;;1.00;1.00;;;;;;;;5061352;29;8840;-82
2023/03/01 04:16:04;;;;;;;;;3.00;3.00;;;;;;;;5078953;29;8905;-83
2023/03/01 04:18:59;;;;;;;;;0.60;0.60;;;;;;;;5078821;29;8921;-83
2023/03/01 04:21:31;;;;;;;;;1.00;1.00;;;;;;;;5251598;23;8929;-82
2023/03/01 04:24:23;;;;;;;;;4.00;4.00;;;;;;;;5193772;23;8912;-83
2023/03/01 04:26:56;;;;;;;;;3.60;3.60;;;;;;;;5118057;23;8893;-83
2023/03/01 04:29:48;;;;;;;;;6.60;6.60;;;;;;;;5020241;29;8814;-79
2023/03/01 04:32:20;;;;;;;;;3.00;3.00;;;;;;;;5055543;29;8779;-86
2023/03/01 04:34:54;;;;;;;;;5.40;5.40;;;;;;;;5036545;29;8929;-85
2023/03/01 04:37:27;;;;;;;;;4.00;3.80;;;;;;;;5210991;23;8848;-80
2023/03/01 04:43:01;;;;;;;;;3.40;2.60;;;;;;;;5244984;23;8905;-83
2023/03/01 04:45:34;;;;;;;;;3.40;3.40;;;;;;;;5340742;23;8859;-82
2023/03/01 04:48:07;;;;;;;;;0.40;0.40;;;;;;;;5076379;29;8796;-81
2023/03/01 04:50:40;;;;;;;;;1.00;1.00;;;;;;;;5080682;29;8816;-81
2023/03/01 04:53:13;;;;;;;;;3.00;3.00;;;;;;;;5079170;29;8847;-81
2023/03/01 04:55:45;;;;;;;;;10.40;10.00;;;;;;;;5076756;29;8788;-80
2023/03/01 04:58:17;;;;;;;;;4.80;4.80;;;;;;;;5055197;29;8798;-80
2023/03/01 05:00:50;;;;;;;;;1.00;1.00;;;;;;;;5055616;29;8881;-81
2023/03/01 05:03:22;;;;;;;;;3.00;3.00;;;;;;;;5077279;29;8806;-81
2023/03/01 05:05:59;;;;;;;;;5.20;5.20;;;;;;;;5087316;29;8814;-82
2023/03/01 05:08:34;;;;;;;;;7.40;7.40;;;;;;;;5091796;29;8805;-81
2023/03/01 05:11:08;;;;;;;;;3.40;3.40;;;;;;;;5077666;29;8838;-80
2023/03/01 05:13:40;;;;;;;;;17.60;17.60;;;;;;;;5064278;29;8812;-82
2023/03/01 05:16:12;;;;;;;;;6.20;6.20;;;;;;;;5084296;29;8884;-75
2023/03/01 05:18:45;;;;;;;;;9.40;9.00;;;;;;;;5107609;29;8824;-82
2023/03/01 05:22:01;;;;;;;;;7.80;7.40;;;;;;;;5096082;29;8943;-81
2023/03/01 05:24:31;;;;;;;;;4.40;4.40;;;;;;;;5102960;23;8904;-77
2023/03/01 05:27:03;;;;;;;;;3.00;3.00;;;;;;;;5071388;29;8826;-77
2023/03/01 05:29:34;;;;;;;;;3.40;3.40;;;;;;;;5074653;29;8820;-77
2023/03/01 05:32:08;;;;;;;;;6.60;6.60;;;;;;;;5070777;29;8842;-76
2023/03/01 05:34:39;;;;;;;;;4.00;4.00;;;;;;;;5066221;29;8826;-76
2023/03/01 05:37:29;;;;;;;;;9.20;9.20;;;;;;;;5062656;29;8886;-75
2023/03/01 05:40:20;;;;;;;;;0.80;0.80;;;;;;;;5068680;29;8849;-74
2023/03/01 05:42:56;;;;;;;;;2.20;2.20;;;;;;;;5050620;29;8970;-75
2023/03/01 05:45:27;;;;;;;;;0.00;0.00;;;;;;;;5035440;29;9574;-74
2023/03/01 05:48:19;;;;;;;;;3.00;3.00;;;;;;;;5053014;29;8834;-75
2023/03/01 05:50:50;;;;;;;;;3.00;3.00;;;;;;;;5069360;29;9550;-76
2023/03/01 05:53:21;;;;;;;;;3.00;3.00;;;;;;;;5070169;29;8923;-77
2023/03/01 05:55:52;;;;;;;;;2.50;2.50;;;;;;;;5081617;29;9560;-75
2023/03/01 05:58:23;;;;;;;;;3.60;3.60;;;;;;;;5080115;29;8811;-74
2023/03/01 06:00:54;;;;;;;;;0.00;0.00;;;;;;;;5064313;29;8960;-75
2023/03/01 06:03:25;;;;;;;;;2.60;2.60;;;;;;;;5082972;29;8882;-75
2023/03/01 06:05:57;;;;;;;;;5.50;5.50;;;;;;;;5054244;29;8837;-75
2023/03/01 06:08:28;;;;;;;;;7.00;7.00;;;;;;;;5076419;29;10987;-74
2023/03/01 06:11:17;;;;;;;;;11.60;11.60;;;;;;;;5065664;29;8839;-72
2023/03/01 06:13:48;;;;;;;;;10.80;10.80;;;;;;;;5062249;29;8825;-76
2023/03/01 06:16:19;;;;;;;;;4.40;4.40;;;;;;;;5046281;29;8855;-74
2023/03/01 06:18:50;;;;;;;;;4.00;4.00;;;;;;;;5058521;29;8822;-75
2023/03/01 06:21:21;;;;;;;;;4.00;3.40;;;;;;;;5038954;29;8831;-73
2023/03/01 06:24:11;;;;;;;;;6.60;6.40;;;;;;;;5063808;29;8844;-73
2023/03/01 06:26:42;;;;;;;;;3.60;3.00;;;;;;;;5047660;29;8838;-74
2023/03/01 06:29:14;;;;;;;;;0.00;0.00;;;;;;;;5063479;29;9546;-75
2023/03/01 06:31:45;;;;;;;;;3.00;3.00;;;;;;;;5047692;29;9854;-74
2023/03/01 06:34:35;;;;;;;;;5.20;5.20;;;;;;;;5068929;29;8908;-81
2023/03/01 06:37:27;;;;;;;;;1.80;1.80;;;;;;;;5039481;29;8813;-82
2023/03/01 06:40:04;;;;;;;;;0.40;0.40;;;;;;;;5029157;29;8814;-80
2023/03/01 06:42:37;;;;;;;;;25.20;24.40;;;;;;;;5032746;29;8795;-81
2023/03/01 06:45:10;;;;;;;;;0.00;0.00;;;;;;;;5017467;29;8871;-81
2023/03/01 06:47:43;;;;;;;;;1.40;1.40;;;;;;;;5032758;29;8806;-80
2023/03/01 06:50:16;;;;;;;;;1.40;1.40;;;;;;;;5017130;29;8808;-80
2023/03/01 06:52:55;;;;;;;;;0.00;0.00;;;;;;;;5025839;29;8813;-81
2023/03/01 06:55:28;;;;;;;;;3.40;3.40;;;;;;;;5032124;29;8841;-81
2023/03/01 06:58:01;;;;;;;;;6.00;6.00;;;;;;;;5037392;29;8884;-81
2023/03/01 07:00:34;;;;;;;;;5.60;4.80;;;;;;;;5051529;29;9651;-80
2023/03/01 07:03:07;;;;;;;;;0.60;0.60;;;;;;;;5051049;29;8855;-82
2023/03/01 07:05:59;;;;;;;;;3.80;3.80;;;;;;;;5054604;29;8808;-80
2023/03/01 07:08:31;;;;;;;;;7.40;7.40;;;;;;;;5056646;29;8839;-82
2023/03/01 07:11:04;;;;;;;;;7.80;7.80;;;;;;;;5039745;29;8825;-80
2023/03/01 07:13:37;;;;;;;;;7.00;7.00;;;;;;;;5052386;29;8891;-81
2023/03/01 07:16:29;;;;;;;;;7.20;7.00;;;;;;;;5040309;29;8833;-81
2023/03/01 07:19:02;;;;;;;;;7.60;7.00;;;;;;;;5155051;23;8921;-81
2023/03/01 07:21:34;;;;;;;;;5.00;5.00;;;;;;;;5062359;29;8814;-82
2023/03/01 07:24:07;;;;;;;;;2.00;2.00;;;;;;;;5071191;29;8797;-84
2023/03/01 07:26:39;;;;;;;;;5.60;4.40;;;;;;;;5067424;29;8835;-82
2023/03/01 07:29:12;;;;;;;;;5.40;5.40;;;;;;;;5066165;29;9526;-81
2023/03/01 07:31:45;;;;;;;;;8.40;8.40;;;;;;;;5103007;23;8883;-81
2023/03/01 07:34:17;;;;;;;;;2.40;2.40;;;;;;;;5100868;28;8783;-76
2023/03/01 07:36:49;;;;;;;;;4.00;4.00;;;;;;;;5105939;28;8816;-81
2023/03/01 07:39:22;;;;;;;;;5.40;5.00;;;;;;;;5091780;28;8748;-80
2023/03/01 07:41:55;;;;;;;;;2.40;1.00;;;;;;;;5070256;29;8855;-82
2023/03/01 07:44:28;;;;;;;;;1.40;1.40;;;;;;;;5084121;29;9622;-82
2023/03/01 07:47:00;;;;;;;;;0.80;0.80;;;;;;;;5069921;29;8828;-80
2023/03/01 07:49:32;;;;;;;;;1.40;1.40;;;;;;;;5076495;29;8790;-76
2023/03/01 07:52:03;;;;;;;;;4.40;4.40;;;;;;;;5072930;29;8845;-77
2023/03/01 07:54:34;;;;;;;;;4.00;4.00;;;;;;;;5077580;29;8835;-74
2023/03/01 07:57:05;;;;;;;;;2.00;2.00;;;;;;;;5103710;29;8826;-74
2023/03/01 07:59:36;;;;;;;;;4.00;4.00;;;;;;;;5088707;29;8796;-76
2023/03/01 08:02:08;;;;;;;;;6.50;6.50;;;;;;;;5089251;29;8800;-76
2023/03/01 08:04:38;;;;;;;;;12.60;12.60;;;;;;;;5089288;29;8796;-82
2023/03/01 08:07:09;;;;;;;;;8.50;8.50;;;;;;;;5089083;29;8804;-79
2023/03/01 08:09:40;;;;;;;;;6.50;4.50;;;;;;;;5085355;29;8799;-83
2023/03/01 08:12:11;;;;;;;;;13.00;12.00;;;;;;;;5069832;29;8786;-79
2023/03/01 08:14:41;;;;;;;;;7.25;7.25;;;;;;;;5061586;29;8813;-76
2023/03/01 08:17:31;;;;;;;;;4.80;4.80;;;;;;;;5087640;29;8793;-76
2023/03/01 08:20:03;;;;;;;;;8.00;8.00;;;;;;;;5105512;29;8822;-76
2023/03/01 08:22:34;;;;;;;;;16.00;14.80;;;;;;;;5104220;29;8882;-76
2023/03/01 08:25:05;;;;;;;;;10.00;8.80;;;;;;;;5088480;29;8814;-77
2023/03/01 08:27:36;;;;;;;;;5.00;5.00;;;;;;;;5105143;29;8793;-76
2023/03/01 08:30:07;;;;;;;;;9.25;8.75;;;;;;;;5088307;29;8913;-80
2023/03/01 08:32:56;;;;;;;;;10.20;7.80;;;;;;;;5088265;29;9969;-81
2023/03/01 08:35:27;;;;;;;;;11.20;11.20;;;;;;;;5105416;29;9639;-79
2023/03/01 08:37:58;;;;;;;;;7.75;7.00;;;;;;;;5088224;29;8827;-77
2023/03/01 08:40:48;;;;;;;;;26.60;22.20;;;;;;;;5088219;29;8823;-77
2023/03/01 08:43:19;;;;;;;;;16.00;16.00;;;;;;;;5103855;29;8913;-77
2023/03/01 08:45:50;;;;;;;;;2.00;2.00;;;;;;;;5103351;29;8934;-77
2023/03/01 08:48:20;;;;;;;;;3.25;3.25;;;;;;;;5088221;29;8973;-77
2023/03/01 08:50:51;;;;;;;;;0.00;0.00;;;;;;;;5103349;29;8845;-78
2023/03/01 08:53:22;;;;;;;;;15.00;15.00;;;;;;;;5087523;29;8846;-76
2023/03/01 08:55:53;;;;;;;;;24.80;24.80;;;;;;;;5088247;29;8864;-76
2023/03/01 08:58:25;;;;;;;;;38.25;38.25;;;;;;;;5068733;29;8834;-79
2023/03/01 09:00:56;;;;;;;;;12.00;12.00;;;;;;;;5072545;29;11742;-76
2023/03/01 09:03:27;;;;;;;;;14.00;14.00;;;;;;;;5080852;29;9190;-80
2023/03/01 09:06:02;;;;;;;;;1.25;0.75;;;;;;;;5103006;29;8843;-80
2023/03/01 09:08:37;;;;;;;;;31.40;31.00;;;;;;;;5084329;29;11651;-79
2023/03/01 09:11:09;;;;;;;;;10.20;10.20;;;;;;;;5103614;29;8835;-79
2023/03/01 09:13:40;;;;;;;;;0.60;0.60;;;;;;;;5102796;29;8846;-78
2023/03/01 09:16:12;;;;;;;;;1.50;1.50;;;;;;;;5070485;29;8834;-79
2023/03/01 09:18:43;;;;;;;;;0.40;0.40;;;;;;;;5087522;29;9339;-79
2023/03/01 09:21:15;;;;;;;;;28.60;28.60;;;;;;;;5103675;29;8913;-78
2023/03/01 09:23:46;;;;;;;;;8.00;8.00;;;;;;;;5099673;29;9562;-76
2023/03/01 09:26:19;;;;;;;;;2.20;2.20;;;;;;;;5087732;29;9574;-79
2023/03/01 09:28:51;;;;;;;;;7.00;7.00;;;;;;;;5056749;29;8830;-80
2023/03/01 09:31:23;;;;;;;;;7.00;7.00;;;;;;;;5068097;29;8865;-80
2023/03/01 09:33:54;;;;;;;;;13.00;13.00;;;;;;;;5051831;29;8848;-78
2023/03/01 09:36:25;;;;;;;;;4.50;4.50;;;;;;;;5085089;29;8810;-79
2023/03/01 09:38:57;;;;;;;;;1.00;1.00;;;;;;;;5084555;29;8824;-79
2023/03/01 09:41:40;;;;;;;;;11.60;10.60;;;;;;;;5067740;29;8869;-79
2023/03/01 09:44:20;;;;;;;;;1.20;1.20;;;;;;;;5067943;29;8813;-77
2023/03/01 09:46:51;;;;;;;;;3.20;3.20;;;;;;;;5083366;29;8806;-80
2023/03/01 09:49:25;;;;;;;;;1.00;1.00;;;;;;;;5067548;29;9599;-80
2023/03/01 09:51:58;;;;;;;;;1.20;1.20;;;;;;;;5083819;29;8801;-78
2023/03/01 09:54:29;;;;;;;;;10.00;10.00;;;;;;;;5052199;29;8813;-76
2023/03/01 09:57:06;;;;;;;;;1.00;1.00;;;;;;;;5067876;29;8809;-76
2023/03/01 10:00:00;;;;;;;;;1.40;1.40;;;;;;;;5067917;29;8925;-76
2023/03/01 10:02:44;;;;;;;;;11.00;11.00;;;;;;;;5084700;29;8812;-77
2023/03/01 10:05:21;;;;;;;;;2.00;2.00;;;;;;;;5067671;29;8782;-74
2023/03/01 10:07:56;;;;;;;;;6.20;5.00;;;;;;;;5067723;29;8810;-76
2023/03/01 10:10:47;;;;;;;;;4.00;4.00;;;;;;;;5084630;29;8810;-76
2023/03/01 10:13:53;;;;;;;;;1.80;1.80;;;;;;;;5083142;29;8821;-79
2023/03/01 10:16:45;;;;;;;;;0.00;0.00;;;;;;;;5067692;29;8786;-78
2023/03/01 10:19:35;;;;;;;;;0.00;0.00;;;;;;;;5067609;29;9576;-78
2023/03/01 10:22:24;;;;;;;;;4.60;4.60;;;;;;;;5067710;29;8828;-75
2023/03/01 10:24:57;;;;;;;;;10.80;10.80;;;;;;;;5082870;29;8814;-75
2023/03/01 10:27:42;;;;;;;;;0.00;0.00;;;;;;;;5067438;29;9517;-75
2023/03/01 10:30:13;;;;;;;;;27.40;27.40;;;;;;;;5083014;29;8813;-76
2023/03/01 10:32:44;;;;;;;;;1.80;1.80;;;;;;;;5102002;29;8825;-76
2023/03/01 10:35:25;;;;;;;;;0.40;0.40;;;;;;;;5102947;29;9571;-75
2023/03/01 10:38:07;;;;;;;;;0.80;0.80;;;;;;;;5071554;29;9520;-75
2023/03/01 10:40:54;;;;;;;;;0.00;0.00;;;;;;;;5086552;29;9581;-75
2023/03/01 10:43:27;;;;;;;;;1.60;1.60;;;;;;;;5075096;29;8793;-75
2023/03/01 10:45:58;;;;;;;;;1.00;1.00;;;;;;;;5074379;29;8895;-75
2023/03/01 10:48:30;;;;;;;;;44.00;42.60;;;;;;;;5107997;29;8816;-76
2023/03/01 10:51:01;;;;;;;;;0.40;0.40;;;;;;;;5075096;29;8862;-77
2023/03/01 10:53:34;;;;;;;;;1.00;1.00;;;;;;;;5107482;29;8789;-76
2023/03/01 10:56:06;;;;;;;;;2.40;2.40;;;;;;;;5090413;29;8798;-75
2023/03/01 10:58:38;;;;;;;;;8.00;8.00;;;;;;;;5074635;29;8809;-75
2023/03/01 11:01:12;;;;;;;;;1.40;1.40;;;;;;;;5090329;29;8829;-75
2023/03/01 11:03:43;;;;;;;;;6.20;6.20;;;;;;;;5105675;29;8833;-75
2023/03/01 11:06:14;;;;;;;;;45.60;44.00;;;;;;;;5090366;29;9481;-76
2023/03/01 11:08:46;;;;;;;;;8.60;8.60;;;;;;;;5075150;29;8797;-75
2023/03/01 11:11:34;;;;;;;;;14.80;14.00;;;;;;;;5106319;29;8801;-76
2023/03/01 11:14:07;;;;;;;;;5.00;4.80;;;;;;;;5107370;29;8797;-75
2023/03/01 11:16:39;;;;;;;;;7.60;7.60;;;;;;;;5090030;29;8821;-76
2023/03/01 11:19:10;;;;;;;;;4.80;4.80;;;;;;;;5080105;29;8810;-82
2023/03/01 11:21:55;;;;;;;;;4.40;4.40;;;;;;;;5082934;29;8892;-83
2023/03/01 11:24:31;;;;;;;;;8.80;8.80;;;;;;;;5064854;29;8864;-82
2023/03/01 11:27:04;;;;;;;;;21.80;20.80;;;;;;;;5080814;29;8810;-83
2023/03/01 11:29:37;;;;;;;;;6.80;6.80;;;;;;;;5067665;29;8790;-82
2023/03/01 11:32:10;;;;;;;;;8.40;8.40;;;;;;;;5066462;29;8855;-81
2023/03/01 11:34:48;;;;;;;;;10.40;10.40;;;;;;;;5065951;29;8801;-82
2023/03/01 11:37:29;;;;;;;;;2.00;2.00;;;;;;;;5082348;29;8806;-82
2023/03/01 11:40:12;;;;;;;;;11.20;11.00;;;;;;;;5067791;29;8818;-82
2023/03/01 11:42:52;;;;;;;;;10.40;10.40;;;;;;;;5100903;29;8822;-81
2023/03/01 12:00:46;;;;;;;;;7.60;7.60;;;;;;;;6163538;23;8788;-80
2023/03/01 12:03:30;;;;;;;;;0.40;0.40;;;;;;;;5047295;29;8778;-81
2023/03/01 12:09:27;;;;;;;;;14.00;14.00;;;;;;;;5983177;23;8909;-78
2023/03/01 12:12:24;;;;;;;;;2.00;2.00;;;;;;;;5428034;23;8970;31
2023/03/01 12:15:03;;;;;;;;;7.20;7.20;;;;;;;;5011984;29;8869;-82
2023/03/01 12:17:41;;;;;;;;;12.60;9.80;;;;;;;;4999798;29;8813;-82
2023/03/01 12:20:19;;;;;;;;;3.40;3.40;;;;;;;;4989542;29;8893;-82
2023/03/01 12:23:00;;;;;;;;;19.80;19.60;;;;;;;;4968255;29;8823;-81
2023/03/01 12:26:07;;;;;;;;;10.80;10.60;;;;;;;;5004491;29;8815;-82
2023/03/01 12:28:57;;;;;;;;;10.60;10.60;;;;;;;;4999132;29;8826;-82
2023/03/01 12:31:32;;;;;;;;;5.80;5.80;;;;;;;;4998220;29;8944;-82
2023/03/01 12:34:30;;;;;;;;;14.00;14.00;;;;;;;;4996503;29;9001;-82
2023/03/01 12:37:10;;;;;;;;;12.60;12.60;;;;;;;;4982213;29;8795;-82
2023/03/01 12:39:42;;;;;;;;;7.00;7.00;;;;;;;;5013915;29;8820;-81
2023/03/01 12:42:13;;;;;;;;;16.80;16.80;;;;;;;;5007470;29;8935;-72
2023/03/01 12:44:51;;;;;;;;;27.40;26.00;;;;;;;;5024714;29;8825;-74
2023/03/01 12:47:34;;;;;;;;;40.60;37.40;;;;;;;;5026007;29;8829;-75
2023/03/01 12:50:14;;;;;;;;;38.20;36.20;;;;;;;;5011008;29;8808;-75
2023/03/01 12:53:11;;;;;;;;;50.00;45.40;;;;;;;;5025943;29;8963;-75
2023/03/01 12:55:43;;;;;;;;;49.00;45.20;;;;;;;;5007468;29;8871;-75
2023/03/01 12:58:32;;;;;;;;;40.20;37.80;;;;;;;;5026566;29;8809;-75
2023/03/01 13:01:15;;;;;;;;;37.80;34.20;;;;;;;;5027330;29;8832;-72
2023/03/01 13:04:17;;;;;;;;;9.00;9.00;;;;;;;;5027267;29;8857;-73
2023/03/01 13:07:07;;;;;;;;;15.00;15.00;;;;;;;;4995700;29;8807;-73
2023/03/01 13:09:44;;;;;;;;;50.00;42.40;;;;;;;;5011033;29;8804;-72
2023/03/01 13:12:33;;;;;;;;;28.00;27.80;;;;;;;;5018643;29;8834;-73
2023/03/01 13:15:24;;;;;;;;;40.80;39.20;;;;;;;;4997694;29;9552;-74
2023/03/01 13:17:58;;;;;;;;;8.40;8.40;;;;;;;;5027756;29;8805;-74
2023/03/01 13:20:41;;;;;;;;;15.00;14.60;;;;;;;;5010459;29;8908;-74
2023/03/01 13:23:21;;;;;;;;;11.20;10.80;;;;;;;;4995351;29;8816;-74
2023/03/01 13:25:58;;;;;;;;;17.20;17.20;;;;;;;;4994940;29;8871;-73
2023/03/01 13:28:45;;;;;;;;;17.60;17.60;;;;;;;;5010971;29;8780;-73
2023/03/01 13:31:19;;;;;;;;;42.00;41.60;;;;;;;;4995708;29;8813;-72
2023/03/01 13:33:55;;;;;;;;;37.80;36.40;;;;;;;;5017179;29;8900;-72
2023/03/01 13:36:29;;;;;;;;;40.00;40.00;;;;;;;;5013656;29;8820;-73
2023/03/01 13:39:01;;;;;;;;;38.40;38.40;;;;;;;;5015343;29;9534;-74
2023/03/01 13:41:38;;;;;;;;;31.40;28.80;;;;;;;;5025178;29;9043;-74
2023/03/01 13:44:13;;;;;;;;;28.60;28.20;;;;;;;;5048431;29;8871;-76
2023/03/01 13:46:45;;;;;;;;;40.20;38.80;;;;;;;;5027006;29;8920;-76
2023/03/01 13:50:13;;;;;;;;;48.60;46.00;;;;;;;;5020214;29;9016;-78
2023/03/01 13:53:06;;;;;;;;;34.60;33.20;;;;;;;;4986603;29;8801;-79
2023/03/01 13:55:40;;;;;;;;;49.80;47.20;;;;;;;;4985818;29;8823;-78
2023/03/01 13:58:23;;;;;;;;;41.00;40.60;;;;;;;;5007888;29;8806;-74
2023/03/01 14:01:04;;;;;;;;;22.60;22.60;;;;;;;;5044085;29;8839;-75
2023/03/01 14:03:41;;;;;;;;;21.20;20.20;;;;;;;;5034404;29;9541;-79
2023/03/01 14:06:15;;;;;;;;;18.20;18.20;;;;;;;;5026419;29;8825;-80
2023/03/01 14:08:47;;;;;;;;;6.40;6.40;;;;;;;;5028207;29;8828;-80
2023/03/01 14:11:32;;;;;;;;;19.20;16.40;;;;;;;;5028759;29;8818;-77
2023/03/01 14:14:22;;;;;;;;;3.00;3.00;;;;;;;;5040328;29;8836;-78
2023/03/01 14:17:08;;;;;;;;;1.00;1.00;;;;;;;;5035397;29;8820;-77
2023/03/01 14:19:44;;;;;;;;;6.00;6.00;;;;;;;;5059832;29;8802;-78
2023/03/01 14:22:22;;;;;;;;;9.80;9.80;;;;;;;;5018290;29;8810;-77
2023/03/01 14:24:58;;;;;;;;;6.20;6.20;;;;;;;;5033254;29;8834;-77
2023/03/01 14:27:54;;;;;;;;;4.00;4.00;;;;;;;;5049183;29;8818;-75
2023/03/01 14:30:32;;;;;;;;;5.80;5.80;;;;;;;;5047964;29;8802;-75
2023/03/01 14:33:06;;;;;;;;;3.40;3.40;;;;;;;;5034970;29;8842;-77
2023/03/01 14:35:37;;;;;;;;;11.20;9.80;;;;;;;;5033596;29;8932;-80
2023/03/01 14:38:20;;;;;;;;;11.60;11.60;;;;;;;;5064778;29;8860;-77
2023/03/01 14:40:55;;;;;;;;;19.80;18.80;;;;;;;;5047688;29;8822;-77
2023/03/01 14:43:28;;;;;;;;;64.40;49.80;;;;;;;;5032253;29;8900;-79
2023/03/01 14:45:59;;;;;;;;;59.40;46.60;;;;;;;;5049660;29;8780;-76
2023/03/01 14:48:31;;;;;;;;;17.00;16.20;;;;;;;;5051527;29;8919;-76
2023/03/01 14:51:04;;;;;;;;;12.60;11.60;;;;;;;;5053317;29;8794;-77
2023/03/01 14:53:36;;;;;;;;;5.60;5.00;;;;;;;;5019206;29;8823;-76
2023/03/01 14:56:13;;;;;;;;;15.00;14.60;;;;;;;;5029395;29;8827;-77
2023/03/01 14:58:44;;;;;;;;;18.00;18.00;;;;;;;;5050067;29;8844;-77
2023/03/01 15:01:16;;;;;;;;;24.00;23.20;;;;;;;;5049459;29;8856;-78
2023/03/01 15:04:06;;;;;;;;;29.60;29.00;;;;;;;;5048931;29;8815;-77
2023/03/01 15:06:38;;;;;;;;;34.20;28.80;;;;;;;;5048795;29;8814;-77
2023/03/01 15:09:16;;;;;;;;;23.80;23.80;;;;;;;;5048788;29;8850;-77
2023/03/01 15:11:48;;;;;;;;;35.40;32.80;;;;;;;;5045724;29;8828;-77
2023/03/01 15:14:43;;;;;;;;;44.00;36.40;;;;;;;;5052795;29;8850;-76
2023/03/01 15:17:26;;;;;;;;;55.60;48.60;;;;;;;;5035575;29;8834;-77
2023/03/01 15:19:58;;;;;;;;;48.80;45.80;;;;;;;;5066663;29;8855;-78
2023/03/01 15:22:29;;;;;;;;;38.40;36.60;;;;;;;;5050207;29;8970;-77
2023/03/01 15:25:00;;;;;;;;;32.25;30.50;;;;;;;;5061122;29;8952;-76
2023/03/01 15:27:31;;;;;;;;;28.80;26.00;;;;;;;;5047102;29;11598;-76
2023/03/01 15:30:03;;;;;;;;;33.50;33.00;;;;;;;;5052024;29;8804;-76
2023/03/01 15:32:39;;;;;;;;;24.00;21.20;;;;;;;;5058156;29;8846;-77
2023/03/01 15:35:29;;;;;;;;;26.40;24.40;;;;;;;;5014223;29;8841;-76
2023/03/01 15:38:01;;;;;;;;;25.20;24.20;;;;;;;;5030685;29;8810;-76
2023/03/01 15:40:32;;;;;;;;;55.20;49.00;;;;;;;;5045038;29;9542;-76
2023/03/01 15:43:05;;;;;;;;;31.20;29.60;;;;;;;;5049785;29;8893;-80
2023/03/01 15:45:38;;;;;;;;;41.80;39.00;;;;;;;;5064953;29;9548;-77
2023/03/01 15:48:19;;;;;;;;;60.00;51.80;;;;;;;;5064527;29;9520;-78
2023/03/01 15:51:12;;;;;;;;;59.20;50.20;;;;;;;;5035590;29;8816;-78
2023/03/01 15:53:49;;;;;;;;;63.00;54.20;;;;;;;;5057289;29;8860;-78
2023/03/01 15:56:20;;;;;;;;;40.60;38.60;;;;;;;;5056821;29;8903;-78
2023/03/01 15:58:52;;;;;;;;;31.80;31.60;;;;;;;;5048453;29;8834;-75
2023/03/01 16:01:42;;;;;;;;;27.20;24.40;;;;;;;;5064991;29;8832;-76
2023/03/01 16:04:20;;;;;;;;;64.40;53.20;;;;;;;;5061328;29;8816;-76